createdAt,value
2022-09-16T00:00:14.134Z,1003.56
2022-09-16T00:01:13.987Z,1003.55
2022-09-16T00:02:14.109Z,1003.54
2022-09-16T00:03:14.181Z,1003.48
2022-09-16T00:04:14.303Z,1003.53
2022-09-16T00:05:14.481Z,1003.41
2022-09-16T00:06:14.641Z,1003.50
2022-09-16T00:07:14.772Z,1003.45
2022-09-16T00:08:15.330Z,1003.55
2022-09-16T00:09:15.081Z,1003.52
2022-09-16T00:10:15.230Z,1003.53
2022-09-16T00:11:15.322Z,1003.48
2022-09-16T00:12:16.418Z,1003.52
2022-09-16T00:13:15.573Z,1003.47
2022-09-16T00:14:15.930Z,1003.46
2022-09-16T00:15:15.841Z,1003.48
2022-09-16T00:16:16.017Z,1003.46
2022-09-16T00:17:16.162Z,1003.48
2022-09-16T00:18:16.533Z,1003.44
2022-09-16T00:19:16.378Z,1003.51
2022-09-16T00:20:16.480Z,1003.49
2022-09-16T00:21:16.659Z,1003.48
2022-09-16T00:22:16.758Z,1003.46
2022-09-16T00:23:16.902Z,1003.45
2022-09-16T00:24:17.071Z,1003.53
2022-09-16T00:25:17.211Z,1003.49
2022-09-16T00:26:17.399Z,1003.39
2022-09-16T00:27:17.540Z,1003.47
2022-09-16T00:28:17.699Z,1003.44
2022-09-16T00:29:17.871Z,1003.52
2022-09-16T00:30:18.074Z,1003.51
2022-09-16T00:31:18.151Z,1003.51
2022-09-16T00:32:18.259Z,1003.51
2022-09-16T00:33:18.411Z,1003.51
2022-09-16T00:34:18.530Z,1003.51
2022-09-16T00:35:18.712Z,1003.54
2022-09-16T00:36:18.807Z,1003.55
2022-09-16T00:37:18.950Z,1003.53
2022-09-16T00:38:19.091Z,1003.51
2022-09-16T00:39:19.220Z,1003.54
2022-09-16T00:40:19.429Z,1003.50
2022-09-16T00:41:19.499Z,1003.54
2022-09-16T00:42:19.599Z,1003.45
2022-09-16T00:43:19.759Z,1003.49
2022-09-16T00:44:19.908Z,1003.51
2022-09-16T00:45:20.101Z,1003.49
2022-09-16T00:46:20.300Z,1003.51
2022-09-16T00:47:20.368Z,1003.52
2022-09-16T00:48:20.522Z,1003.53
2022-09-16T00:49:20.620Z,1003.46
2022-09-16T00:50:20.845Z,1003.51
2022-09-16T00:51:20.869Z,1003.47
2022-09-16T00:52:21.009Z,1003.50
2022-09-16T00:53:21.129Z,1003.50
2022-09-16T00:54:21.269Z,1003.47
2022-09-16T00:55:21.458Z,1003.52
2022-09-16T00:56:21.612Z,1003.55
2022-09-16T00:57:21.708Z,1003.52
2022-09-16T00:58:21.857Z,1003.46
2022-09-16T00:59:21.957Z,1003.48
2022-09-16T01:00:22.091Z,1003.47
2022-09-16T01:01:22.268Z,1003.47
2022-09-16T01:02:22.420Z,1003.53
2022-09-16T01:03:22.501Z,1003.47
2022-09-16T01:04:22.658Z,1003.48
2022-09-16T01:05:22.829Z,1003.55
2022-09-16T01:06:23.025Z,1003.53
2022-09-16T01:07:23.180Z,1003.53
2022-09-16T01:08:23.317Z,1003.50
2022-09-16T01:09:23.457Z,1003.46
2022-09-16T01:10:23.598Z,1003.54
2022-09-16T01:11:23.758Z,1003.53
2022-09-16T01:12:23.898Z,1003.50
2022-09-16T01:13:24.037Z,1003.56
2022-09-16T01:14:24.198Z,1003.55
2022-09-16T01:15:24.338Z,1003.51
2022-09-16T01:16:24.555Z,1003.56
2022-09-16T01:17:24.638Z,1003.54
2022-09-16T01:18:24.787Z,1003.54
2022-09-16T01:19:24.887Z,1003.52
2022-09-16T01:20:25.021Z,1003.55
2022-09-16T01:21:25.178Z,1003.52
2022-09-16T01:22:25.331Z,1003.53
2022-09-16T01:23:25.467Z,1003.53
2022-09-16T01:24:25.547Z,1003.59
2022-09-16T01:25:25.716Z,1003.59
2022-09-16T01:26:25.807Z,1003.56
2022-09-16T01:27:25.928Z,1003.56
2022-09-16T01:28:26.067Z,1003.56
2022-09-16T01:29:26.216Z,1003.56
2022-09-16T01:30:26.316Z,1003.55
2022-09-16T01:31:26.526Z,1003.59
2022-09-16T01:32:26.564Z,1003.60
2022-09-16T01:33:26.756Z,1003.56
2022-09-16T01:34:26.820Z,1003.57
2022-09-16T01:35:26.976Z,1003.53
2022-09-16T01:36:27.140Z,1003.55
2022-09-16T01:37:27.258Z,1003.53
2022-09-16T01:38:27.399Z,1003.51
2022-09-16T01:39:27.539Z,1003.51
2022-09-16T01:40:27.741Z,1003.58
2022-09-16T01:41:27.837Z,1003.54
2022-09-16T01:42:27.937Z,1003.55
2022-09-16T01:43:28.087Z,1003.51
2022-09-16T01:44:28.207Z,1003.54
2022-09-16T01:45:28.358Z,1003.50
2022-09-16T01:46:28.601Z,1003.50
2022-09-16T01:47:28.657Z,1003.52
2022-09-16T01:48:28.785Z,1003.49
2022-09-16T01:49:28.925Z,1003.54
2022-09-16T01:50:29.091Z,1003.51
2022-09-16T01:51:29.278Z,1003.55
2022-09-16T01:52:29.346Z,1003.53
2022-09-16T01:53:29.506Z,1003.52
2022-09-16T01:54:29.634Z,1003.54
2022-09-16T01:55:29.785Z,1003.51
2022-09-16T01:56:29.922Z,1003.55
2022-09-16T01:57:30.066Z,1003.57
2022-09-16T01:58:30.166Z,1003.56
2022-09-16T01:59:30.313Z,1003.48
2022-09-16T02:00:30.395Z,1003.50
2022-09-16T02:01:30.573Z,1003.53
2022-09-16T02:02:30.796Z,1003.43
2022-09-16T02:03:30.845Z,1003.46
2022-09-16T02:04:30.986Z,1003.46
2022-09-16T02:05:31.122Z,1003.45
2022-09-16T02:06:31.344Z,1003.43
2022-09-16T02:07:31.409Z,1003.48
2022-09-16T02:08:31.526Z,1003.45
2022-09-16T02:09:31.711Z,1003.46
2022-09-16T02:10:31.695Z,1003.49
2022-09-16T02:11:31.835Z,1003.46
2022-09-16T02:12:31.996Z,1003.47
2022-09-16T02:13:32.144Z,1003.42
2022-09-16T02:14:32.245Z,1003.40
2022-09-16T02:15:33.844Z,1003.43
2022-09-16T02:16:32.552Z,1003.43
2022-09-16T02:17:33.384Z,1003.40
2022-09-16T02:18:32.812Z,1003.35
2022-09-16T02:19:33.423Z,1003.37
2022-09-16T02:20:33.113Z,1003.39
2022-09-16T02:21:33.991Z,1003.34
2022-09-16T02:22:33.432Z,1003.36
2022-09-16T02:23:33.544Z,1003.35
2022-09-16T02:24:33.692Z,1003.34
2022-09-16T02:25:33.856Z,1003.40
2022-09-16T02:26:34.004Z,1003.39
2022-09-16T02:27:34.492Z,1003.45
2022-09-16T02:28:34.244Z,1003.39
2022-09-16T02:29:34.420Z,1003.44
2022-09-16T02:30:34.488Z,1003.38
2022-09-16T02:31:35.665Z,1003.38
2022-09-16T02:32:34.812Z,1003.38
2022-09-16T02:33:35.672Z,1003.37
2022-09-16T02:34:35.110Z,1003.34
2022-09-16T02:35:35.981Z,1003.26
2022-09-16T02:36:35.420Z,1003.31
2022-09-16T02:37:36.285Z,1003.34
2022-09-16T02:38:35.741Z,1003.30
2022-09-16T02:39:36.352Z,1003.34
2022-09-16T02:40:35.974Z,1003.30
2022-09-16T02:41:36.134Z,1003.27
2022-09-16T02:42:36.230Z,1003.26
2022-09-16T02:43:37.129Z,1003.31
2022-09-16T02:44:36.550Z,1003.31
2022-09-16T02:45:37.382Z,1003.28
2022-09-16T02:46:36.795Z,1003.24
2022-09-16T02:47:37.630Z,1003.23
2022-09-16T02:48:37.015Z,1003.21
2022-09-16T02:49:37.170Z,1003.21
2022-09-16T02:50:37.330Z,1003.16
2022-09-16T02:51:37.442Z,1003.16
2022-09-16T02:52:39.004Z,1003.17
2022-09-16T02:53:37.723Z,1003.22
2022-09-16T02:54:37.809Z,1003.22
2022-09-16T02:55:37.970Z,1003.20
2022-09-16T02:56:38.035Z,1003.22
2022-09-16T02:57:38.170Z,1003.15
2022-09-16T02:58:38.311Z,1003.23
2022-09-16T02:59:38.444Z,1003.17
2022-09-16T03:00:38.689Z,1003.19
2022-09-16T03:01:38.838Z,1003.21
2022-09-16T03:02:38.905Z,1003.21
2022-09-16T03:03:39.000Z,1003.28
2022-09-16T03:04:39.100Z,1003.25
2022-09-16T03:05:39.240Z,1003.21
2022-09-16T03:06:39.391Z,1003.27
2022-09-16T03:07:39.523Z,1003.27
2022-09-16T03:08:40.636Z,1003.28
2022-09-16T03:09:39.782Z,1003.32
2022-09-16T03:10:39.920Z,1003.33
2022-09-16T03:11:40.056Z,1003.34
2022-09-16T03:12:40.207Z,1003.34
2022-09-16T03:13:40.321Z,1003.36
2022-09-16T03:14:40.407Z,1003.29
2022-09-16T03:15:40.567Z,1003.34
2022-09-16T03:16:45.308Z,1003.32
2022-09-16T03:17:41.820Z,1003.31
2022-09-16T03:18:40.949Z,1003.35
2022-09-16T03:19:41.383Z,1003.37
2022-09-16T03:20:41.248Z,1003.32
2022-09-16T03:21:41.397Z,1003.35
2022-09-16T03:22:41.550Z,1003.32
2022-09-16T03:23:41.697Z,1003.33
2022-09-16T03:24:41.789Z,1003.33
2022-09-16T03:25:41.937Z,1003.25
2022-09-16T03:26:42.071Z,1003.27
2022-09-16T03:27:42.209Z,1003.30
2022-09-16T03:28:42.350Z,1003.22
2022-09-16T03:29:45.731Z,1003.24
2022-09-16T03:30:42.649Z,1003.21
2022-09-16T03:31:42.782Z,1003.21
2022-09-16T03:32:42.910Z,1003.26
2022-09-16T03:33:43.058Z,1003.25
2022-09-16T03:34:43.170Z,1003.22
2022-09-16T03:35:43.282Z,1003.21
2022-09-16T03:36:43.390Z,1003.20
2022-09-16T03:37:43.558Z,1003.23
2022-09-16T03:38:43.735Z,1003.21
2022-09-16T03:39:43.790Z,1003.24
2022-09-16T03:40:43.918Z,1003.24
2022-09-16T03:41:44.058Z,1003.26
2022-09-16T03:42:44.159Z,1003.25
2022-09-16T03:43:44.327Z,1003.29
2022-09-16T03:44:44.486Z,1003.27
2022-09-16T03:45:44.627Z,1003.25
2022-09-16T03:46:44.747Z,1003.29
2022-09-16T03:47:44.949Z,1003.26
2022-09-16T03:48:44.987Z,1003.24
2022-09-16T03:49:45.119Z,1003.25
2022-09-16T03:50:45.248Z,1003.25
2022-09-16T03:51:46.136Z,1003.25
2022-09-16T03:52:45.515Z,1003.23
2022-09-16T03:53:45.681Z,1003.27
2022-09-16T03:54:45.808Z,1003.22
2022-09-16T03:55:45.945Z,1003.23
2022-09-16T03:56:46.069Z,1003.23
2022-09-16T03:57:46.209Z,1003.26
2022-09-16T03:58:46.348Z,1003.26
2022-09-16T03:59:46.518Z,1003.25
2022-09-16T04:00:46.649Z,1003.23
2022-09-16T04:01:46.844Z,1003.25
2022-09-16T04:02:47.111Z,1003.24
2022-09-16T04:03:47.084Z,1003.23
2022-09-16T04:04:47.240Z,1003.28
2022-09-16T04:05:47.378Z,1003.25
2022-09-16T04:06:47.498Z,1003.32
2022-09-16T04:07:47.646Z,1003.30
2022-09-16T04:08:47.800Z,1003.29
2022-09-16T04:09:47.877Z,1003.27
2022-09-16T04:10:48.005Z,1003.25
2022-09-16T04:11:48.144Z,1003.21
2022-09-16T04:12:48.278Z,1003.24
2022-09-16T04:13:48.425Z,1003.26
2022-09-16T04:14:48.513Z,1003.19
2022-09-16T04:15:48.665Z,1003.25
2022-09-16T04:16:48.766Z,1003.21
2022-09-16T04:17:48.907Z,1003.21
2022-09-16T04:18:49.046Z,1003.17
2022-09-16T04:19:49.178Z,1003.25
2022-09-16T04:20:49.303Z,1003.17
2022-09-16T04:21:49.486Z,1003.19
2022-09-16T04:22:49.576Z,1003.24
2022-09-16T04:23:49.686Z,1003.22
2022-09-16T04:24:49.782Z,1003.19
2022-09-16T04:25:49.915Z,1003.27
2022-09-16T04:26:50.787Z,1003.21
2022-09-16T04:27:50.235Z,1003.20
2022-09-16T04:28:50.335Z,1003.24
2022-09-16T04:29:50.489Z,1003.25
2022-09-16T04:30:50.628Z,1003.22
2022-09-16T04:31:50.707Z,1003.25
2022-09-16T04:32:50.868Z,1003.28
2022-09-16T04:33:51.020Z,1003.24
2022-09-16T04:34:51.123Z,1003.23
2022-09-16T04:35:51.291Z,1003.23
2022-09-16T04:36:51.384Z,1003.20
2022-09-16T04:37:51.535Z,1003.24
2022-09-16T04:38:51.636Z,1003.23
2022-09-16T04:39:51.804Z,1003.30
2022-09-16T04:40:51.924Z,1003.28
2022-09-16T04:41:52.061Z,1003.30
2022-09-16T04:42:52.184Z,1003.24
2022-09-16T04:43:52.313Z,1003.30
2022-09-16T04:44:52.453Z,1003.36
2022-09-16T04:45:53.513Z,1003.30
2022-09-16T04:46:52.694Z,1003.25
2022-09-16T04:47:52.826Z,1003.27
2022-09-16T04:48:52.965Z,1003.24
2022-09-16T04:49:53.074Z,1003.25
2022-09-16T04:50:53.204Z,1003.24
2022-09-16T04:51:53.346Z,1003.35
2022-09-16T04:52:53.493Z,1003.25
2022-09-16T04:53:53.696Z,1003.27
2022-09-16T04:54:54.234Z,1003.32
2022-09-16T04:55:53.915Z,1003.27
2022-09-16T04:56:54.266Z,1003.20
2022-09-16T04:57:54.183Z,1003.30
2022-09-16T04:58:54.402Z,1003.29
2022-09-16T04:59:54.472Z,1003.27
2022-09-16T05:00:55.362Z,1003.24
2022-09-16T05:01:54.821Z,1003.24
2022-09-16T05:02:55.498Z,1003.23
2022-09-16T05:03:55.015Z,1003.23
2022-09-16T05:04:55.163Z,1003.37
2022-09-16T05:05:55.323Z,1003.34
2022-09-16T05:06:55.435Z,1003.31
2022-09-16T05:07:55.552Z,1003.31
2022-09-16T05:08:55.768Z,1003.29
2022-09-16T05:09:55.845Z,1003.23
2022-09-16T05:10:56.222Z,1003.24
2022-09-16T05:11:56.136Z,1003.29
2022-09-16T05:12:56.311Z,1003.20
2022-09-16T05:13:56.725Z,1003.18
2022-09-16T05:14:56.764Z,1003.20
2022-09-16T05:15:56.647Z,1003.18
2022-09-16T05:16:56.892Z,1003.21
2022-09-16T05:17:56.852Z,1003.16
2022-09-16T05:18:56.952Z,1003.13
2022-09-16T05:19:57.069Z,1003.14
2022-09-16T05:20:57.378Z,1003.15
2022-09-16T05:21:57.361Z,1003.10
2022-09-16T05:22:57.512Z,1003.17
2022-09-16T05:23:57.774Z,1003.16
2022-09-16T05:24:57.725Z,1003.16
2022-09-16T05:25:57.833Z,1003.20
2022-09-16T05:26:57.921Z,1003.20
2022-09-16T05:27:58.022Z,1003.19
2022-09-16T05:28:58.203Z,1003.19
2022-09-16T05:29:58.356Z,1003.14
2022-09-16T05:30:58.512Z,1003.13
2022-09-16T05:31:58.522Z,1003.16
2022-09-16T05:32:58.654Z,1003.14
2022-09-16T05:33:58.737Z,1003.16
2022-09-16T05:34:58.862Z,1003.22
2022-09-16T05:35:59.021Z,1003.25
2022-09-16T05:36:59.842Z,1003.29
2022-09-16T05:37:59.282Z,1003.23
2022-09-16T05:40:00.533Z,1003.24
2022-09-16T05:40:59.662Z,1003.23
2022-09-16T05:41:59.852Z,1003.23
2022-09-16T05:42:59.882Z,1003.21
2022-09-16T05:43:59.972Z,1003.15
2022-09-16T05:45:00.086Z,1003.23
2022-09-16T05:46:00.277Z,1003.17
2022-09-16T05:47:01.073Z,1003.19
2022-09-16T05:48:00.472Z,1003.23
2022-09-16T05:49:01.359Z,1003.18
2022-09-16T05:50:00.720Z,1003.22
2022-09-16T05:51:00.993Z,1003.22
2022-09-16T05:52:00.980Z,1003.20
2022-09-16T05:53:01.092Z,1003.21
2022-09-16T05:54:01.188Z,1003.27
2022-09-16T05:55:01.331Z,1003.25
2022-09-16T05:56:01.472Z,1003.28
2022-09-16T05:57:06.568Z,1003.25
2022-09-16T05:58:02.752Z,1003.26
2022-09-16T05:59:01.852Z,1003.24
2022-09-16T06:00:01.961Z,1003.25
2022-09-16T06:01:02.100Z,1003.26
2022-09-16T06:02:02.369Z,1003.27
2022-09-16T06:03:02.368Z,1003.25
2022-09-16T06:04:02.713Z,1003.28
2022-09-16T06:05:02.633Z,1003.34
2022-09-16T06:06:02.794Z,1003.34
2022-09-16T06:07:02.951Z,1003.42
2022-09-16T06:08:03.070Z,1003.42
2022-09-16T06:09:03.170Z,1003.43
2022-09-16T06:10:03.312Z,1003.42
2022-09-16T06:11:04.921Z,1003.52
2022-09-16T06:12:03.570Z,1003.47
2022-09-16T06:13:03.693Z,1003.53
2022-09-16T06:14:03.802Z,1003.50
2022-09-16T06:15:03.929Z,1003.56
2022-09-16T06:16:04.095Z,1003.49
2022-09-16T06:17:04.170Z,1003.49
2022-09-16T06:18:06.429Z,1003.51
2022-09-16T06:19:04.373Z,1003.52
2022-09-16T06:20:04.498Z,1003.51
2022-09-16T06:21:05.868Z,1003.51
2022-09-16T06:22:05.839Z,1003.53
2022-09-16T06:23:05.131Z,1003.51
2022-09-16T06:24:04.990Z,1003.51
2022-09-16T06:25:05.150Z,1003.58
2022-09-16T06:26:05.207Z,1003.53
2022-09-16T06:27:05.358Z,1003.50
2022-09-16T06:28:05.467Z,1003.56
2022-09-16T06:29:05.620Z,1003.52
2022-09-16T06:30:05.719Z,1003.57
2022-09-16T06:31:05.908Z,1003.51
2022-09-16T06:32:05.987Z,1003.53
2022-09-16T06:33:06.135Z,1003.58
2022-09-16T06:34:06.248Z,1003.57
2022-09-16T06:35:06.368Z,1003.56
2022-09-16T06:36:06.467Z,1003.60
2022-09-16T06:37:06.607Z,1003.58
2022-09-16T06:38:06.740Z,1003.57
2022-09-16T06:39:06.895Z,1003.53
2022-09-16T06:40:07.048Z,1003.46
2022-09-16T06:41:07.144Z,1003.47
2022-09-16T06:42:07.289Z,1003.45
2022-09-16T06:43:07.464Z,1003.44
2022-09-16T06:44:07.669Z,1003.41
2022-09-16T06:45:07.821Z,1003.39
2022-09-16T06:46:07.914Z,1003.40
2022-09-16T06:47:07.928Z,1003.44
2022-09-16T06:48:08.036Z,1003.38
2022-09-16T06:49:08.203Z,1003.38
2022-09-16T06:50:08.295Z,1003.37
2022-09-16T06:51:08.408Z,1003.41
2022-09-16T06:52:08.548Z,1003.32
2022-09-16T06:53:08.688Z,1003.36
2022-09-16T06:54:08.828Z,1003.38
2022-09-16T06:55:08.993Z,1003.35
2022-09-16T06:56:09.081Z,1003.33
2022-09-16T06:57:12.392Z,1003.25
2022-09-16T06:58:09.345Z,1003.29
2022-09-16T06:59:09.490Z,1003.28
2022-09-16T07:00:09.655Z,1003.24
2022-09-16T07:01:09.757Z,1003.28
2022-09-16T07:02:09.909Z,1003.23
2022-09-16T07:03:09.987Z,1003.31
2022-09-16T07:04:10.096Z,1003.30
2022-09-16T07:05:10.245Z,1003.31
2022-09-16T07:06:10.354Z,1003.33
2022-09-16T07:07:10.947Z,1003.35
2022-09-16T07:08:10.615Z,1003.36
2022-09-16T07:09:10.747Z,1003.38
2022-09-16T07:10:10.897Z,1003.32
2022-09-16T07:11:11.050Z,1003.33
2022-09-16T07:12:11.157Z,1003.35
2022-09-16T07:13:11.432Z,1003.37
2022-09-16T07:14:11.427Z,1003.38
2022-09-16T07:15:11.633Z,1003.32
2022-09-16T07:16:13.624Z,1003.35
2022-09-16T07:17:11.821Z,1003.36
2022-09-16T07:18:11.885Z,1003.37
2022-09-16T07:19:12.027Z,1003.37
2022-09-16T07:20:12.194Z,1003.30
2022-09-16T07:21:12.298Z,1003.31
2022-09-16T07:22:12.395Z,1003.28
2022-09-16T07:23:12.509Z,1003.32
2022-09-16T07:24:12.642Z,1003.32
2022-09-16T07:25:13.476Z,1003.33
2022-09-16T07:26:12.915Z,1003.38
2022-09-16T07:27:13.016Z,1003.35
2022-09-16T07:28:13.464Z,1003.42
2022-09-16T07:29:13.329Z,1003.41
2022-09-16T07:30:13.365Z,1003.40
2022-09-16T07:31:13.582Z,1003.41
2022-09-16T07:32:14.365Z,1003.49
2022-09-16T07:33:13.764Z,1003.46
2022-09-16T07:34:14.384Z,1003.58
2022-09-16T07:35:13.994Z,1003.57
2022-09-16T07:36:14.113Z,1003.52
2022-09-16T07:37:14.264Z,1003.59
2022-09-16T07:38:15.087Z,1003.54
2022-09-16T07:39:14.465Z,1003.55
2022-09-16T07:40:15.365Z,1003.54
2022-09-16T07:41:14.718Z,1003.59
2022-09-16T07:42:15.356Z,1003.61
2022-09-16T07:43:14.916Z,1003.55
2022-09-16T07:44:15.396Z,1003.54
2022-09-16T07:45:15.175Z,1003.54
2022-09-16T07:46:15.316Z,1003.51
2022-09-16T07:47:20.063Z,1003.51
2022-09-16T07:48:17.276Z,1003.55
2022-09-16T07:49:15.685Z,1003.54
2022-09-16T07:50:15.812Z,1003.53
2022-09-16T07:51:16.064Z,1003.53
2022-09-16T07:52:17.761Z,1003.58
2022-09-16T07:53:16.173Z,1003.55
2022-09-16T07:54:16.314Z,1003.54
2022-09-16T07:55:16.480Z,1003.55
2022-09-16T07:56:17.342Z,1003.57
2022-09-16T07:57:16.714Z,1003.55
2022-09-16T07:58:16.802Z,1003.59
2022-09-16T07:59:18.463Z,1003.60
2022-09-16T08:00:17.083Z,1003.61
2022-09-16T08:01:17.325Z,1003.55
2022-09-16T08:02:17.565Z,1003.59
2022-09-16T08:03:17.503Z,1003.59
2022-09-16T08:04:17.616Z,1003.53
2022-09-16T08:05:17.736Z,1003.55
2022-09-16T08:06:17.820Z,1003.48
2022-09-16T08:07:17.975Z,1003.59
2022-09-16T08:08:19.597Z,1003.58
2022-09-16T08:10:19.344Z,1003.58
2022-09-16T08:11:18.455Z,1003.56
2022-09-16T08:12:18.569Z,1003.61
2022-09-16T08:13:18.697Z,1003.56
2022-09-16T08:14:18.774Z,1003.57
2022-09-16T08:16:19.270Z,1003.52
2022-09-16T08:17:19.222Z,1003.57
2022-09-16T08:18:19.324Z,1003.53
2022-09-16T08:19:19.443Z,1003.52
2022-09-16T08:20:19.544Z,1003.55
2022-09-16T08:21:19.693Z,1003.56
2022-09-16T08:22:19.806Z,1003.51
2022-09-16T08:23:19.931Z,1003.58
2022-09-16T08:24:20.028Z,1003.56
2022-09-16T08:25:20.175Z,1003.54
2022-09-16T08:26:20.285Z,1003.52
2022-09-16T08:27:20.452Z,1003.56
2022-09-16T08:28:20.552Z,1003.54
2022-09-16T08:29:20.664Z,1003.52
2022-09-16T08:30:20.789Z,1003.57
2022-09-16T08:31:21.169Z,1003.55
2022-09-16T08:32:21.024Z,1003.62
2022-09-16T08:33:21.314Z,1003.60
2022-09-16T08:34:21.254Z,1003.63
2022-09-16T08:35:21.353Z,1003.60
2022-09-16T08:36:21.473Z,1003.59
2022-09-16T08:37:21.572Z,1003.60
2022-09-16T08:38:21.685Z,1003.58
2022-09-16T08:39:21.867Z,1003.66
2022-09-16T08:41:22.113Z,1003.57
2022-09-16T08:42:24.852Z,1003.67
2022-09-16T08:43:22.306Z,1003.66
2022-09-16T08:44:22.442Z,1003.64
2022-09-16T08:45:22.666Z,1003.57
2022-09-16T08:46:24.161Z,1003.64
2022-09-16T08:47:22.854Z,1003.67
2022-09-16T08:48:27.886Z,1003.64
2022-09-16T08:49:24.062Z,1003.57
2022-09-16T08:50:23.173Z,1003.60
2022-09-16T08:51:23.294Z,1003.54
2022-09-16T08:52:23.389Z,1003.60
2022-09-16T08:53:23.534Z,1003.65
2022-09-16T08:54:23.641Z,1003.59
2022-09-16T08:55:23.819Z,1003.59
2022-09-16T08:56:23.910Z,1003.57
2022-09-16T08:57:24.022Z,1003.58
2022-09-16T08:58:24.130Z,1003.70
2022-09-16T08:59:24.293Z,1003.63
2022-09-16T09:00:24.410Z,1003.68
2022-09-16T09:01:24.793Z,1003.65
2022-09-16T09:02:25.038Z,1003.65
2022-09-16T09:03:24.975Z,1003.65
2022-09-16T09:04:24.973Z,1003.61
2022-09-16T09:05:25.034Z,1003.59
2022-09-16T09:06:25.133Z,1003.60
2022-09-16T09:07:25.241Z,1003.59
2022-09-16T09:08:25.382Z,1003.62
2022-09-16T09:09:25.535Z,1003.58
2022-09-16T09:10:25.654Z,1003.58
2022-09-16T09:11:25.763Z,1003.56
2022-09-16T09:12:26.840Z,1003.65
2022-09-16T09:13:26.835Z,1003.65
2022-09-16T09:14:26.215Z,1003.58
2022-09-16T09:15:28.398Z,1003.64
2022-09-16T09:16:26.470Z,1003.59
2022-09-16T09:17:26.503Z,1003.64
2022-09-16T09:18:26.613Z,1003.58
2022-09-16T09:19:26.753Z,1003.66
2022-09-16T09:20:26.893Z,1003.56
2022-09-16T09:21:27.461Z,1003.56
2022-09-16T09:22:27.150Z,1003.61
2022-09-16T09:23:27.293Z,1003.59
2022-09-16T09:24:27.393Z,1003.61
2022-09-16T09:25:27.554Z,1003.58
2022-09-16T09:26:27.656Z,1003.51
2022-09-16T09:27:27.775Z,1003.60
2022-09-16T09:28:27.876Z,1003.61
2022-09-16T09:29:28.034Z,1003.57
2022-09-16T09:30:28.141Z,1003.46
2022-09-16T09:31:28.444Z,1003.48
2022-09-16T09:32:28.410Z,1003.53
2022-09-16T09:33:45.433Z,1003.49
2022-09-16T09:34:29.686Z,1003.40
2022-09-16T09:35:28.813Z,1003.38
2022-09-16T09:36:28.974Z,1003.46
2022-09-16T09:37:29.065Z,1003.46
2022-09-16T09:38:29.247Z,1003.55
2022-09-16T09:39:29.321Z,1003.52
2022-09-16T09:40:29.526Z,1003.50
2022-09-16T09:41:29.604Z,1003.48
2022-09-16T09:42:29.695Z,1003.56
2022-09-16T09:43:29.862Z,1003.54
2022-09-16T09:44:29.926Z,1003.52
2022-09-16T09:45:30.028Z,1003.57
2022-09-16T09:46:30.234Z,1003.56
2022-09-16T09:47:30.301Z,1003.53
2022-09-16T09:48:30.461Z,1003.43
2022-09-16T09:49:30.585Z,1003.47
2022-09-16T09:50:30.744Z,1003.51
2022-09-16T09:51:30.856Z,1003.47
2022-09-16T09:52:30.985Z,1003.48
2022-09-16T09:53:31.065Z,1003.40
2022-09-16T09:54:31.222Z,1003.42
2022-09-16T09:55:31.324Z,1003.40
2022-09-16T09:56:31.521Z,1003.44
2022-09-16T09:57:31.624Z,1003.43
2022-09-16T09:58:31.717Z,1003.52
2022-09-16T09:59:31.863Z,1003.60
2022-09-16T10:00:32.032Z,1003.68
2022-09-16T10:01:32.086Z,1003.61
2022-09-16T10:02:32.266Z,1003.64
2022-09-16T10:03:32.321Z,1003.58
2022-09-16T10:04:32.549Z,1003.54
2022-09-16T10:05:32.586Z,1003.59
2022-09-16T10:06:32.733Z,1003.58
2022-09-16T10:07:32.886Z,1003.53
2022-09-16T10:08:33.015Z,1003.61
2022-09-16T10:09:33.104Z,1003.61
2022-09-16T10:10:33.256Z,1003.57
2022-09-16T10:11:33.366Z,1003.50
2022-09-16T10:12:33.492Z,1003.52
2022-09-16T10:13:33.593Z,1003.49
2022-09-16T10:14:33.738Z,1003.51
2022-09-16T10:15:33.872Z,1003.47
2022-09-16T10:16:34.085Z,1003.46
2022-09-16T10:17:34.420Z,1003.48
2022-09-16T10:18:34.253Z,1003.45
2022-09-16T10:19:34.462Z,1003.48
2022-09-16T10:20:34.503Z,1003.47
2022-09-16T10:21:35.356Z,1003.45
2022-09-16T10:22:34.751Z,1003.42
2022-09-16T10:23:35.452Z,1003.43
2022-09-16T10:24:34.983Z,1003.35
2022-09-16T10:25:35.164Z,1003.44
2022-09-16T10:26:35.207Z,1003.43
2022-09-16T10:27:35.315Z,1003.41
2022-09-16T10:28:35.435Z,1003.39
2022-09-16T10:29:35.555Z,1003.37
2022-09-16T10:30:35.672Z,1003.37
2022-09-16T10:31:35.902Z,1003.36
2022-09-16T10:32:35.925Z,1003.29
2022-09-16T10:33:36.043Z,1003.42
2022-09-16T10:34:36.154Z,1003.34
2022-09-16T10:35:36.512Z,1003.35
2022-09-16T10:36:36.387Z,1003.34
2022-09-16T10:37:36.536Z,1003.36
2022-09-16T10:38:36.736Z,1003.35
2022-09-16T10:39:37.096Z,1003.34
2022-09-16T10:40:37.110Z,1003.23
2022-09-16T10:41:37.188Z,1003.20
2022-09-16T10:42:37.204Z,1003.24
2022-09-16T10:43:37.276Z,1003.16
2022-09-16T10:44:37.377Z,1003.21
2022-09-16T10:45:37.564Z,1003.14
2022-09-16T10:46:37.651Z,1003.12
2022-09-16T10:47:37.775Z,1003.09
2022-09-16T10:48:37.848Z,1003.12
2022-09-16T10:49:38.677Z,1003.16
2022-09-16T10:50:38.119Z,1003.07
2022-09-16T10:51:38.298Z,1003.11
2022-09-16T10:52:38.438Z,1003.09
2022-09-16T10:53:40.869Z,1003.09
2022-09-16T10:54:38.680Z,1003.10
2022-09-16T10:55:38.819Z,1003.07
2022-09-16T10:56:39.209Z,1003.12
2022-09-16T10:57:39.046Z,1003.11
2022-09-16T10:58:39.357Z,1003.08
2022-09-16T10:59:39.337Z,1003.11
2022-09-16T11:00:44.905Z,1003.06
2022-09-16T11:01:43.498Z,1003.02
2022-09-16T11:02:39.700Z,1003.02
2022-09-16T11:03:39.857Z,1003.06
2022-09-16T11:04:40.000Z,1003.05
2022-09-16T11:05:40.366Z,1003.01
2022-09-16T11:06:40.258Z,1003.05
2022-09-16T11:07:40.360Z,1003.11
2022-09-16T11:08:40.511Z,1003.06
2022-09-16T11:09:40.647Z,1003.12
2022-09-16T11:10:40.767Z,1003.13
2022-09-16T11:11:40.919Z,1003.14
2022-09-16T11:12:41.003Z,1003.21
2022-09-16T11:13:41.163Z,1003.18
2022-09-16T11:14:41.288Z,1003.24
2022-09-16T11:15:41.397Z,1003.22
2022-09-16T11:16:41.619Z,1003.29
2022-09-16T11:17:41.668Z,1003.22
2022-09-16T11:18:41.759Z,1003.17
2022-09-16T11:19:41.948Z,1003.22
2022-09-16T11:20:42.000Z,1003.20
2022-09-16T11:21:42.096Z,1003.21
2022-09-16T11:22:42.227Z,1003.18
2022-09-16T11:23:42.358Z,1003.16
2022-09-16T11:24:42.490Z,1003.11
2022-09-16T11:25:42.596Z,1003.16
2022-09-16T11:26:42.729Z,1003.10
2022-09-16T11:27:42.857Z,1003.10
2022-09-16T11:28:42.988Z,1003.14
2022-09-16T11:29:43.116Z,1003.07
2022-09-16T11:30:43.249Z,1003.02
2022-09-16T11:31:44.352Z,1003.07
2022-09-16T11:32:43.605Z,1003.08
2022-09-16T11:33:43.608Z,1002.96
2022-09-16T11:34:43.708Z,1002.97
2022-09-16T11:35:43.857Z,1003.00
2022-09-16T11:36:43.978Z,1002.94
2022-09-16T11:37:44.087Z,1003.00
2022-09-16T11:38:46.145Z,1002.95
2022-09-16T11:39:44.329Z,1002.99
2022-09-16T11:40:44.479Z,1003.07
2022-09-16T11:41:44.615Z,1003.07
2022-09-16T11:42:44.759Z,1003.06
2022-09-16T11:43:44.879Z,1003.14
2022-09-16T11:44:45.009Z,1003.11
2022-09-16T11:45:45.160Z,1003.16
2022-09-16T11:46:45.271Z,1003.10
2022-09-16T11:47:46.330Z,1003.14
2022-09-16T11:48:45.468Z,1003.13
2022-09-16T11:49:45.587Z,1003.18
2022-09-16T11:50:45.760Z,1003.20
2022-09-16T11:51:45.847Z,1003.25
2022-09-16T11:52:45.949Z,1003.15
2022-09-16T11:53:47.171Z,1003.26
2022-09-16T11:54:46.223Z,1003.34
2022-09-16T11:55:46.444Z,1003.35
2022-09-16T11:56:46.588Z,1003.28
2022-09-16T11:57:46.572Z,1003.28
2022-09-16T11:58:46.887Z,1003.37
2022-09-16T11:59:46.919Z,1003.35
2022-09-16T12:00:46.940Z,1003.44
2022-09-16T12:01:47.209Z,1003.36
2022-09-16T12:02:47.371Z,1003.44
2022-09-16T12:03:47.435Z,1003.43
2022-09-16T12:04:47.548Z,1003.44
2022-09-16T12:05:47.568Z,1003.52
2022-09-16T12:06:47.740Z,1003.42
2022-09-16T12:07:47.830Z,1003.53
2022-09-16T12:08:47.939Z,1003.46
2022-09-16T12:09:48.111Z,1003.41
2022-09-16T12:10:48.350Z,1003.39